sensor_id;sensor_type;location;lat;lon;timestamp;P1;durP1;ratioP1;P2;durP2;ratioP2
52456;SDS011;38369;52.840;7.082;2023-04-27T00:00:27;8.18;;;5.30;;
52456;SDS011;38369;52.840;7.082;2023-04-27T00:02:53;8.25;;;5.65;;
52456;SDS011;38369;52.840;7.082;2023-04-27T00:05:19;6.88;;;4.50;;
52456;SDS011;38369;52.840;7.082;2023-04-27T00:07:45;7.10;;;5.18;;
52456;SDS011;38369;52.840;7.082;2023-04-27T00:10:11;10.63;;;5.60;;
52456;SDS011;38369;52.840;7.082;2023-04-27T00:12:37;11.02;;;6.03;;
52456;SDS011;38369;52.840;7.082;2023-04-27T00:15:04;8.55;;;5.70;;
52456;SDS011;38369;52.840;7.082;2023-04-27T00:17:30;9.50;;;5.95;;
52456;SDS011;38369;52.840;7.082;2023-04-27T00:19:57;9.30;;;6.10;;
52456;SDS011;38369;52.840;7.082;2023-04-27T00:22:24;8.65;;;6.78;;
52456;SDS011;38369;52.840;7.082;2023-04-27T00:24:50;12.18;;;6.18;;
52456;SDS011;38369;52.840;7.082;2023-04-27T00:27:16;8.18;;;6.13;;
52456;SDS011;38369;52.840;7.082;2023-04-27T00:29:42;6.80;;;5.65;;
52456;SDS011;38369;52.840;7.082;2023-04-27T00:32:09;12.05;;;6.25;;
52456;SDS011;38369;52.840;7.082;2023-04-27T00:34:35;8.73;;;5.45;;
52456;SDS011;38369;52.840;7.082;2023-04-27T00:37:01;7.95;;;5.45;;
52456;SDS011;38369;52.840;7.082;2023-04-27T00:39:27;11.07;;;6.18;;
52456;SDS011;38369;52.840;7.082;2023-04-27T00:41:54;9.20;;;5.93;;
52456;SDS011;38369;52.840;7.082;2023-04-27T00:44:23;10.05;;;5.40;;
52456;SDS011;38369;52.840;7.082;2023-04-27T00:46:50;10.13;;;5.87;;
52456;SDS011;38369;52.840;7.082;2023-04-27T00:49:16;8.43;;;5.57;;
52456;SDS011;38369;52.840;7.082;2023-04-27T00:51:42;8.07;;;5.90;;
52456;SDS011;38369;52.840;7.082;2023-04-27T00:54:08;8.15;;;5.95;;
52456;SDS011;38369;52.840;7.082;2023-04-27T00:56:35;12.30;;;5.80;;
52456;SDS011;38369;52.840;7.082;2023-04-27T00:59:01;12.20;;;6.50;;
52456;SDS011;38369;52.840;7.082;2023-04-27T01:01:28;7.22;;;5.28;;
52456;SDS011;38369;52.840;7.082;2023-04-27T01:03:54;10.45;;;6.00;;
52456;SDS011;38369;52.840;7.082;2023-04-27T01:06:20;7.65;;;6.13;;
52456;SDS011;38369;52.840;7.082;2023-04-27T01:08:49;8.43;;;5.35;;
52456;SDS011;38369;52.840;7.082;2023-04-27T01:11:15;8.32;;;5.82;;
52456;SDS011;38369;52.840;7.082;2023-04-27T01:13:41;6.88;;;5.93;;
52456;SDS011;38369;52.840;7.082;2023-04-27T01:16:07;7.93;;;5.53;;
52456;SDS011;38369;52.840;7.082;2023-04-27T01:18:33;9.52;;;6.45;;
52456;SDS011;38369;52.840;7.082;2023-04-27T01:20:59;9.93;;;5.82;;
52456;SDS011;38369;52.840;7.082;2023-04-27T01:23:26;9.55;;;5.95;;
52456;SDS011;38369;52.840;7.082;2023-04-27T01:25:52;11.45;;;6.20;;
52456;SDS011;38369;52.840;7.082;2023-04-27T01:28:18;10.43;;;6.50;;
52456;SDS011;38369;52.840;7.082;2023-04-27T01:30:44;9.52;;;5.97;;
52456;SDS011;38369;52.840;7.082;2023-04-27T01:33:10;6.45;;;5.40;;
52456;SDS011;38369;52.840;7.082;2023-04-27T01:35:36;7.45;;;5.28;;
52456;SDS011;38369;52.840;7.082;2023-04-27T01:38:02;7.50;;;5.70;;
52456;SDS011;38369;52.840;7.082;2023-04-27T01:40:28;11.85;;;8.00;;
52456;SDS011;38369;52.840;7.082;2023-04-27T01:42:54;7.68;;;5.38;;
52456;SDS011;38369;52.840;7.082;2023-04-27T01:45:20;11.32;;;6.75;;
52456;SDS011;38369;52.840;7.082;2023-04-27T01:47:46;10.38;;;6.28;;
52456;SDS011;38369;52.840;7.082;2023-04-27T01:50:15;11.40;;;6.93;;
52456;SDS011;38369;52.840;7.082;2023-04-27T01:52:41;10.48;;;6.30;;
52456;SDS011;38369;52.840;7.082;2023-04-27T01:55:07;11.48;;;7.38;;
52456;SDS011;38369;52.840;7.082;2023-04-27T01:57:33;11.93;;;7.32;;
52456;SDS011;38369;52.840;7.082;2023-04-27T01:59:59;14.52;;;7.03;;
52456;SDS011;38369;52.840;7.082;2023-04-27T02:02:25;8.75;;;7.00;;
52456;SDS011;38369;52.840;7.082;2023-04-27T02:04:51;9.95;;;6.35;;
52456;SDS011;38369;52.840;7.082;2023-04-27T02:07:17;11.48;;;7.18;;
52456;SDS011;38369;52.840;7.082;2023-04-27T02:09:43;9.05;;;5.55;;
52456;SDS011;38369;52.840;7.082;2023-04-27T02:12:09;11.85;;;7.32;;
52456;SDS011;38369;52.840;7.082;2023-04-27T02:14:35;9.70;;;7.15;;
52456;SDS011;38369;52.840;7.082;2023-04-27T02:17:01;9.55;;;6.70;;
52456;SDS011;38369;52.840;7.082;2023-04-27T02:19:27;10.88;;;6.55;;
52456;SDS011;38369;52.840;7.082;2023-04-27T02:21:55;14.18;;;6.88;;
52456;SDS011;38369;52.840;7.082;2023-04-27T02:24:21;11.60;;;7.80;;
52456;SDS011;38369;52.840;7.082;2023-04-27T02:26:47;16.08;;;8.65;;
52456;SDS011;38369;52.840;7.082;2023-04-27T02:29:13;11.38;;;7.35;;
52456;SDS011;38369;52.840;7.082;2023-04-27T02:31:39;9.82;;;6.75;;
52456;SDS011;38369;52.840;7.082;2023-04-27T02:34:05;9.40;;;6.35;;
52456;SDS011;38369;52.840;7.082;2023-04-27T02:36:31;11.98;;;7.68;;
52456;SDS011;38369;52.840;7.082;2023-04-27T02:38:57;11.93;;;6.78;;
52456;SDS011;38369;52.840;7.082;2023-04-27T02:41:23;9.23;;;6.60;;
52456;SDS011;38369;52.840;7.082;2023-04-27T02:43:52;11.15;;;7.28;;
52456;SDS011;38369;52.840;7.082;2023-04-27T02:46:18;10.15;;;6.43;;
52456;SDS011;38369;52.840;7.082;2023-04-27T02:48:44;13.32;;;7.85;;
52456;SDS011;38369;52.840;7.082;2023-04-27T02:51:10;11.15;;;7.65;;
52456;SDS011;38369;52.840;7.082;2023-04-27T02:53:36;11.98;;;6.63;;
52456;SDS011;38369;52.840;7.082;2023-04-27T02:56:02;9.73;;;6.57;;
52456;SDS011;38369;52.840;7.082;2023-04-27T02:58:29;13.90;;;7.38;;
52456;SDS011;38369;52.840;7.082;2023-04-27T03:00:55;12.23;;;7.43;;
52456;SDS011;38369;52.840;7.082;2023-04-27T03:03:21;13.73;;;7.13;;
52456;SDS011;38369;52.840;7.082;2023-04-27T03:05:48;17.52;;;7.47;;
52456;SDS011;38369;52.840;7.082;2023-04-27T03:08:14;13.70;;;8.10;;
52456;SDS011;38369;52.840;7.082;2023-04-27T03:10:40;12.07;;;7.95;;
52456;SDS011;38369;52.840;7.082;2023-04-27T03:13:06;12.57;;;7.97;;
52456;SDS011;38369;52.840;7.082;2023-04-27T03:15:33;15.63;;;8.57;;
52456;SDS011;38369;52.840;7.082;2023-04-27T03:17:59;12.48;;;7.35;;
52456;SDS011;38369;52.840;7.082;2023-04-27T03:20:25;13.85;;;7.97;;
52456;SDS011;38369;52.840;7.082;2023-04-27T03:22:51;14.60;;;8.18;;
52456;SDS011;38369;52.840;7.082;2023-04-27T03:25:17;12.40;;;7.47;;
52456;SDS011;38369;52.840;7.082;2023-04-27T03:27:43;11.68;;;7.57;;
52456;SDS011;38369;52.840;7.082;2023-04-27T03:30:10;12.63;;;8.18;;
52456;SDS011;38369;52.840;7.082;2023-04-27T03:32:36;12.20;;;7.50;;
52456;SDS011;38369;52.840;7.082;2023-04-27T03:35:02;15.02;;;8.50;;
52456;SDS011;38369;52.840;7.082;2023-04-27T03:37:28;11.07;;;7.38;;
52456;SDS011;38369;52.840;7.082;2023-04-27T03:39:55;14.93;;;9.25;;
52456;SDS011;38369;52.840;7.082;2023-04-27T03:42:21;13.00;;;8.23;;
52456;SDS011;38369;52.840;7.082;2023-04-27T03:44:47;14.80;;;8.30;;
52456;SDS011;38369;52.840;7.082;2023-04-27T03:47:13;11.93;;;7.80;;
52456;SDS011;38369;52.840;7.082;2023-04-27T03:49:39;14.25;;;8.25;;
52456;SDS011;38369;52.840;7.082;2023-04-27T03:52:05;14.55;;;7.15;;
52456;SDS011;38369;52.840;7.082;2023-04-27T03:54:31;11.43;;;8.80;;
52456;SDS011;38369;52.840;7.082;2023-04-27T03:56:57;12.82;;;8.05;;
52456;SDS011;38369;52.840;7.082;2023-04-27T03:59:23;12.13;;;8.23;;
52456;SDS011;38369;52.840;7.082;2023-04-27T04:01:49;13.52;;;9.27;;
52456;SDS011;38369;52.840;7.082;2023-04-27T04:04:15;12.20;;;7.93;;
52456;SDS011;38369;52.840;7.082;2023-04-27T04:06:41;15.95;;;7.63;;
52456;SDS011;38369;52.840;7.082;2023-04-27T04:09:07;12.73;;;7.75;;
52456;SDS011;38369;52.840;7.082;2023-04-27T04:11:34;12.32;;;8.07;;
52456;SDS011;38369;52.840;7.082;2023-04-27T04:14:00;11.20;;;7.32;;
52456;SDS011;38369;52.840;7.082;2023-04-27T04:16:26;12.20;;;8.18;;
52456;SDS011;38369;52.840;7.082;2023-04-27T04:18:52;18.13;;;9.15;;
52456;SDS011;38369;52.840;7.082;2023-04-27T04:21:18;15.95;;;7.95;;
52456;SDS011;38369;52.840;7.082;2023-04-27T04:23:45;11.57;;;8.30;;
52456;SDS011;38369;52.840;7.082;2023-04-27T04:26:11;14.18;;;8.15;;
52456;SDS011;38369;52.840;7.082;2023-04-27T04:28:37;13.63;;;8.65;;
52456;SDS011;38369;52.840;7.082;2023-04-27T04:31:03;13.13;;;8.18;;
52456;SDS011;38369;52.840;7.082;2023-04-27T04:33:30;12.32;;;7.40;;
52456;SDS011;38369;52.840;7.082;2023-04-27T04:35:56;10.43;;;7.07;;
52456;SDS011;38369;52.840;7.082;2023-04-27T04:38:22;15.88;;;9.02;;
52456;SDS011;38369;52.840;7.082;2023-04-27T04:40:48;15.63;;;9.55;;
52456;SDS011;38369;52.840;7.082;2023-04-27T04:43:16;14.02;;;8.88;;
52456;SDS011;38369;52.840;7.082;2023-04-27T04:45:42;14.57;;;8.95;;
52456;SDS011;38369;52.840;7.082;2023-04-27T04:48:08;16.33;;;8.82;;
52456;SDS011;38369;52.840;7.082;2023-04-27T04:50:35;22.48;;;9.55;;
52456;SDS011;38369;52.840;7.082;2023-04-27T04:53:01;9.68;;;7.18;;
52456;SDS011;38369;52.840;7.082;2023-04-27T04:55:27;16.42;;;7.90;;
52456;SDS011;38369;52.840;7.082;2023-04-27T04:57:53;13.35;;;7.70;;
52456;SDS011;38369;52.840;7.082;2023-04-27T05:00:19;11.27;;;7.38;;
52456;SDS011;38369;52.840;7.082;2023-04-27T05:02:46;13.52;;;8.30;;
52456;SDS011;38369;52.840;7.082;2023-04-27T05:05:12;11.60;;;7.38;;
52456;SDS011;38369;52.840;7.082;2023-04-27T05:07:38;11.95;;;7.93;;
52456;SDS011;38369;52.840;7.082;2023-04-27T05:10:04;13.35;;;7.70;;
52456;SDS011;38369;52.840;7.082;2023-04-27T05:12:30;15.82;;;8.90;;
52456;SDS011;38369;52.840;7.082;2023-04-27T05:14:56;15.27;;;8.95;;
52456;SDS011;38369;52.840;7.082;2023-04-27T05:17:23;12.48;;;8.25;;
52456;SDS011;38369;52.840;7.082;2023-04-27T05:19:49;14.07;;;9.40;;
52456;SDS011;38369;52.840;7.082;2023-04-27T05:22:15;16.70;;;9.23;;
52456;SDS011;38369;52.840;7.082;2023-04-27T05:24:41;12.27;;;8.02;;
52456;SDS011;38369;52.840;7.082;2023-04-27T05:27:07;16.30;;;9.07;;
52456;SDS011;38369;52.840;7.082;2023-04-27T05:29:33;14.55;;;7.72;;
52456;SDS011;38369;52.840;7.082;2023-04-27T05:31:59;14.25;;;8.07;;
52456;SDS011;38369;52.840;7.082;2023-04-27T05:34:25;16.13;;;8.88;;
52456;SDS011;38369;52.840;7.082;2023-04-27T05:36:51;13.55;;;8.95;;
52456;SDS011;38369;52.840;7.082;2023-04-27T05:39:17;12.95;;;9.00;;
52456;SDS011;38369;52.840;7.082;2023-04-27T05:41:43;16.92;;;11.15;;
52456;SDS011;38369;52.840;7.082;2023-04-27T05:44:09;16.30;;;10.35;;
52456;SDS011;38369;52.840;7.082;2023-04-27T05:46:35;15.18;;;9.40;;
52456;SDS011;38369;52.840;7.082;2023-04-27T05:49:01;14.00;;;9.25;;
52456;SDS011;38369;52.840;7.082;2023-04-27T05:51:27;14.48;;;9.48;;
52456;SDS011;38369;52.840;7.082;2023-04-27T05:53:53;13.38;;;9.93;;
52456;SDS011;38369;52.840;7.082;2023-04-27T05:56:20;14.55;;;9.60;;
52456;SDS011;38369;52.840;7.082;2023-04-27T05:58:46;16.08;;;10.85;;
52456;SDS011;38369;52.840;7.082;2023-04-27T06:01:12;15.60;;;11.20;;
52456;SDS011;38369;52.840;7.082;2023-04-27T06:03:39;15.25;;;10.43;;
52456;SDS011;38369;52.840;7.082;2023-04-27T06:06:05;13.75;;;10.02;;
52456;SDS011;38369;52.840;7.082;2023-04-27T06:08:31;19.00;;;10.40;;
52456;SDS011;38369;52.840;7.082;2023-04-27T06:10:59;16.50;;;11.18;;
52456;SDS011;38369;52.840;7.082;2023-04-27T06:13:25;19.23;;;13.20;;
52456;SDS011;38369;52.840;7.082;2023-04-27T06:15:51;15.27;;;10.68;;
52456;SDS011;38369;52.840;7.082;2023-04-27T06:18:17;15.57;;;10.52;;
52456;SDS011;38369;52.840;7.082;2023-04-27T06:20:43;18.50;;;11.00;;
52456;SDS011;38369;52.840;7.082;2023-04-27T06:23:11;16.40;;;9.07;;
52456;SDS011;38369;52.840;7.082;2023-04-27T06:25:37;19.38;;;9.77;;
52456;SDS011;38369;52.840;7.082;2023-04-27T06:28:04;17.80;;;11.13;;
52456;SDS011;38369;52.840;7.082;2023-04-27T06:30:30;17.30;;;11.50;;
52456;SDS011;38369;52.840;7.082;2023-04-27T06:32:56;18.77;;;10.98;;
52456;SDS011;38369;52.840;7.082;2023-04-27T06:35:22;18.45;;;11.50;;
52456;SDS011;38369;52.840;7.082;2023-04-27T06:37:48;15.57;;;11.07;;
52456;SDS011;38369;52.840;7.082;2023-04-27T06:40:15;15.15;;;10.90;;
52456;SDS011;38369;52.840;7.082;2023-04-27T06:42:41;19.42;;;11.10;;
52456;SDS011;38369;52.840;7.082;2023-04-27T06:45:07;30.08;;;12.07;;
52456;SDS011;38369;52.840;7.082;2023-04-27T06:47:33;16.77;;;10.90;;
52456;SDS011;38369;52.840;7.082;2023-04-27T06:49:59;15.35;;;10.00;;
52456;SDS011;38369;52.840;7.082;2023-04-27T06:52:25;16.15;;;10.60;;
52456;SDS011;38369;52.840;7.082;2023-04-27T06:54:51;15.45;;;11.13;;
52456;SDS011;38369;52.840;7.082;2023-04-27T06:57:18;15.50;;;10.15;;
52456;SDS011;38369;52.840;7.082;2023-04-27T06:59:44;18.50;;;10.45;;
52456;SDS011;38369;52.840;7.082;2023-04-27T07:02:10;15.30;;;10.25;;
52456;SDS011;38369;52.840;7.082;2023-04-27T07:04:36;14.30;;;9.43;;
52456;SDS011;38369;52.840;7.082;2023-04-27T07:07:02;12.95;;;8.23;;
52456;SDS011;38369;52.840;7.082;2023-04-27T07:09:28;18.55;;;9.20;;
52456;SDS011;38369;52.840;7.082;2023-04-27T07:11:54;14.18;;;8.88;;
52456;SDS011;38369;52.840;7.082;2023-04-27T07:14:23;13.63;;;8.07;;
52456;SDS011;38369;52.840;7.082;2023-04-27T07:16:49;12.75;;;7.25;;
52456;SDS011;38369;52.840;7.082;2023-04-27T07:19:15;12.90;;;7.53;;
52456;SDS011;38369;52.840;7.082;2023-04-27T07:21:41;10.27;;;7.25;;
52456;SDS011;38369;52.840;7.082;2023-04-27T07:24:07;10.40;;;6.90;;
52456;SDS011;38369;52.840;7.082;2023-04-27T07:26:33;12.55;;;6.95;;
52456;SDS011;38369;52.840;7.082;2023-04-27T07:29:00;10.43;;;6.82;;
52456;SDS011;38369;52.840;7.082;2023-04-27T07:31:26;13.00;;;6.75;;
52456;SDS011;38369;52.840;7.082;2023-04-27T07:33:52;9.20;;;7.10;;
52456;SDS011;38369;52.840;7.082;2023-04-27T07:36:20;11.23;;;6.72;;
52456;SDS011;38369;52.840;7.082;2023-04-27T07:38:46;7.20;;;5.32;;
52456;SDS011;38369;52.840;7.082;2023-04-27T07:41:12;8.20;;;6.07;;
52456;SDS011;38369;52.840;7.082;2023-04-27T07:43:38;7.50;;;5.45;;
52456;SDS011;38369;52.840;7.082;2023-04-27T07:46:04;9.70;;;5.57;;
52456;SDS011;38369;52.840;7.082;2023-04-27T07:48:30;9.13;;;5.55;;
52456;SDS011;38369;52.840;7.082;2023-04-27T07:50:56;9.68;;;5.18;;
52456;SDS011;38369;52.840;7.082;2023-04-27T07:53:22;10.18;;;5.50;;
52456;SDS011;38369;52.840;7.082;2023-04-27T07:55:48;9.70;;;5.07;;
52456;SDS011;38369;52.840;7.082;2023-04-27T07:58:15;12.30;;;5.90;;
52456;SDS011;38369;52.840;7.082;2023-04-27T08:00:41;8.82;;;6.00;;
52456;SDS011;38369;52.840;7.082;2023-04-27T08:03:07;12.38;;;5.13;;
52456;SDS011;38369;52.840;7.082;2023-04-27T08:05:33;6.45;;;4.70;;
52456;SDS011;38369;52.840;7.082;2023-04-27T08:07:59;5.47;;;4.30;;
52456;SDS011;38369;52.840;7.082;2023-04-27T08:10:25;9.60;;;5.20;;
52456;SDS011;38369;52.840;7.082;2023-04-27T08:12:51;6.05;;;4.85;;
52456;SDS011;38369;52.840;7.082;2023-04-27T08:15:17;10.30;;;4.95;;
52456;SDS011;38369;52.840;7.082;2023-04-27T08:17:43;5.80;;;4.60;;
52456;SDS011;38369;52.840;7.082;2023-04-27T08:20:11;9.50;;;5.60;;
52456;SDS011;38369;52.840;7.082;2023-04-27T08:22:37;7.50;;;4.63;;
52456;SDS011;38369;52.840;7.082;2023-04-27T08:25:04;8.88;;;5.28;;
52456;SDS011;38369;52.840;7.082;2023-04-27T08:27:31;5.85;;;4.65;;
52456;SDS011;38369;52.840;7.082;2023-04-27T08:29:57;9.60;;;4.82;;
52456;SDS011;38369;52.840;7.082;2023-04-27T08:32:25;8.75;;;5.75;;
52456;SDS011;38369;52.840;7.082;2023-04-27T08:34:51;8.02;;;5.85;;
52456;SDS011;38369;52.840;7.082;2023-04-27T08:37:17;6.57;;;5.03;;
52456;SDS011;38369;52.840;7.082;2023-04-27T08:39:43;6.00;;;4.65;;
52456;SDS011;38369;52.840;7.082;2023-04-27T08:42:09;12.55;;;4.75;;
52456;SDS011;38369;52.840;7.082;2023-04-27T08:44:42;6.80;;;5.38;;
52456;SDS011;38369;52.840;7.082;2023-04-27T08:47:09;11.07;;;5.10;;
52456;SDS011;38369;52.840;7.082;2023-04-27T08:49:35;5.95;;;4.85;;
52456;SDS011;38369;52.840;7.082;2023-04-27T08:52:14;6.38;;;4.63;;
52456;SDS011;38369;52.840;7.082;2023-04-27T08:54:41;9.00;;;4.90;;
52456;SDS011;38369;52.840;7.082;2023-04-27T08:57:13;6.55;;;4.68;;
52456;SDS011;38369;52.840;7.082;2023-04-27T08:59:40;8.18;;;4.97;;
52456;SDS011;38369;52.840;7.082;2023-04-27T09:02:18;6.07;;;4.53;;
52456;SDS011;38369;52.840;7.082;2023-04-27T09:04:44;9.15;;;4.55;;
52456;SDS011;38369;52.840;7.082;2023-04-27T09:07:11;10.18;;;4.60;;
52456;SDS011;38369;52.840;7.082;2023-04-27T09:09:37;6.65;;;4.43;;
52456;SDS011;38369;52.840;7.082;2023-04-27T09:12:12;6.85;;;5.00;;
52456;SDS011;38369;52.840;7.082;2023-04-27T09:14:39;7.45;;;4.57;;
52456;SDS011;38369;52.840;7.082;2023-04-27T09:17:06;8.30;;;4.82;;
52456;SDS011;38369;52.840;7.082;2023-04-27T09:19:33;8.63;;;4.13;;
52456;SDS011;38369;52.840;7.082;2023-04-27T09:22:17;6.70;;;5.35;;
52456;SDS011;38369;52.840;7.082;2023-04-27T09:24:52;8.75;;;4.68;;
52456;SDS011;38369;52.840;7.082;2023-04-27T09:27:19;7.97;;;4.72;;
52456;SDS011;38369;52.840;7.082;2023-04-27T09:29:45;6.55;;;4.47;;
52456;SDS011;38369;52.840;7.082;2023-04-27T09:32:18;7.57;;;4.90;;
52456;SDS011;38369;52.840;7.082;2023-04-27T09:34:45;6.18;;;4.55;;
52456;SDS011;38369;52.840;7.082;2023-04-27T09:37:11;6.80;;;4.65;;
52456;SDS011;38369;52.840;7.082;2023-04-27T09:39:38;7.55;;;3.75;;
52456;SDS011;38369;52.840;7.082;2023-04-27T09:42:04;9.80;;;4.13;;
52456;SDS011;38369;52.840;7.082;2023-04-27T09:44:31;4.72;;;3.78;;
52456;SDS011;38369;52.840;7.082;2023-04-27T09:46:57;7.88;;;4.38;;
52456;SDS011;38369;52.840;7.082;2023-04-27T09:49:25;6.10;;;3.50;;
52456;SDS011;38369;52.840;7.082;2023-04-27T09:51:51;5.60;;;4.07;;
52456;SDS011;38369;52.840;7.082;2023-04-27T09:54:18;8.80;;;4.47;;
52456;SDS011;38369;52.840;7.082;2023-04-27T10:01:54;6.07;;;4.38;;
52456;SDS011;38369;52.840;7.082;2023-04-27T10:07:07;7.90;;;3.92;;
52456;SDS011;38369;52.840;7.082;2023-04-27T10:09:34;9.23;;;4.43;;
52456;SDS011;38369;52.840;7.082;2023-04-27T10:14:49;5.45;;;4.18;;
52456;SDS011;38369;52.840;7.082;2023-04-27T10:17:15;9.70;;;4.55;;
52456;SDS011;38369;52.840;7.082;2023-04-27T10:19:51;5.82;;;3.70;;
52456;SDS011;38369;52.840;7.082;2023-04-27T10:22:18;6.13;;;4.00;;
52456;SDS011;38369;52.840;7.082;2023-04-27T10:24:47;7.68;;;3.70;;
52456;SDS011;38369;52.840;7.082;2023-04-27T10:27:15;4.90;;;3.63;;
52456;SDS011;38369;52.840;7.082;2023-04-27T10:29:46;7.25;;;4.20;;
52456;SDS011;38369;52.840;7.082;2023-04-27T10:32:20;5.68;;;4.22;;
52456;SDS011;38369;52.840;7.082;2023-04-27T10:34:48;6.18;;;3.55;;
52456;SDS011;38369;52.840;7.082;2023-04-27T10:37:15;7.18;;;4.30;;
52456;SDS011;38369;52.840;7.082;2023-04-27T10:39:42;5.72;;;3.95;;
52456;SDS011;38369;52.840;7.082;2023-04-27T10:42:09;8.43;;;4.25;;
52456;SDS011;38369;52.840;7.082;2023-04-27T10:44:36;8.38;;;4.70;;
52456;SDS011;38369;52.840;7.082;2023-04-27T10:47:12;5.82;;;3.92;;
52456;SDS011;38369;52.840;7.082;2023-04-27T10:49:39;5.40;;;3.78;;
52456;SDS011;38369;52.840;7.082;2023-04-27T10:52:05;6.45;;;3.45;;
52456;SDS011;38369;52.840;7.082;2023-04-27T10:54:31;6.05;;;4.10;;
52456;SDS011;38369;52.840;7.082;2023-04-27T10:57:04;4.93;;;3.72;;
52456;SDS011;38369;52.840;7.082;2023-04-27T10:59:31;8.20;;;4.28;;
52456;SDS011;38369;52.840;7.082;2023-04-27T11:01:57;4.95;;;3.45;;
52456;SDS011;38369;52.840;7.082;2023-04-27T11:04:33;4.10;;;3.20;;
52456;SDS011;38369;52.840;7.082;2023-04-27T11:07:00;5.07;;;3.58;;
52456;SDS011;38369;52.840;7.082;2023-04-27T11:09:28;6.45;;;3.45;;
52456;SDS011;38369;52.840;7.082;2023-04-27T11:11:55;9.02;;;4.13;;
52456;SDS011;38369;52.840;7.082;2023-04-27T11:14:21;6.22;;;3.45;;
52456;SDS011;38369;52.840;7.082;2023-04-27T11:16:47;7.00;;;3.40;;
52456;SDS011;38369;52.840;7.082;2023-04-27T11:19:14;6.68;;;4.30;;
52456;SDS011;38369;52.840;7.082;2023-04-27T11:21:40;7.70;;;3.92;;
52456;SDS011;38369;52.840;7.082;2023-04-27T11:24:07;6.20;;;3.60;;
52456;SDS011;38369;52.840;7.082;2023-04-27T11:26:34;6.75;;;4.10;;
52456;SDS011;38369;52.840;7.082;2023-04-27T11:29:02;6.53;;;3.88;;
52456;SDS011;38369;52.840;7.082;2023-04-27T11:31:44;7.70;;;4.10;;
52456;SDS011;38369;52.840;7.082;2023-04-27T11:34:17;6.90;;;3.42;;
52456;SDS011;38369;52.840;7.082;2023-04-27T11:36:43;8.52;;;4.35;;
52456;SDS011;38369;52.840;7.082;2023-04-27T11:39:16;7.80;;;4.00;;
52456;SDS011;38369;52.840;7.082;2023-04-27T11:41:46;7.57;;;4.57;;
52456;SDS011;38369;52.840;7.082;2023-04-27T11:44:12;6.03;;;4.10;;
52456;SDS011;38369;52.840;7.082;2023-04-27T11:46:38;6.57;;;3.40;;
52456;SDS011;38369;52.840;7.082;2023-04-27T11:49:06;9.45;;;4.20;;
52456;SDS011;38369;52.840;7.082;2023-04-27T11:51:33;7.32;;;4.40;;
52456;SDS011;38369;52.840;7.082;2023-04-27T11:54:03;5.93;;;3.90;;
52456;SDS011;38369;52.840;7.082;2023-04-27T11:56:39;7.28;;;4.25;;
52456;SDS011;38369;52.840;7.082;2023-04-27T11:59:17;6.22;;;4.38;;
52456;SDS011;38369;52.840;7.082;2023-04-27T12:01:43;8.27;;;4.70;;
52456;SDS011;38369;52.840;7.082;2023-04-27T12:04:09;7.43;;;4.63;;
52456;SDS011;38369;52.840;7.082;2023-04-27T12:06:35;6.05;;;4.40;;
52456;SDS011;38369;52.840;7.082;2023-04-27T12:09:02;8.25;;;4.05;;
52456;SDS011;38369;52.840;7.082;2023-04-27T12:11:29;6.38;;;4.28;;
52456;SDS011;38369;52.840;7.082;2023-04-27T12:13:55;7.97;;;4.78;;
52456;SDS011;38369;52.840;7.082;2023-04-27T12:16:21;7.88;;;4.30;;
52456;SDS011;38369;52.840;7.082;2023-04-27T12:18:51;6.50;;;4.55;;
52456;SDS011;38369;52.840;7.082;2023-04-27T12:21:17;7.18;;;4.15;;
52456;SDS011;38369;52.840;7.082;2023-04-27T12:23:43;7.28;;;4.45;;
52456;SDS011;38369;52.840;7.082;2023-04-27T12:26:10;8.40;;;4.45;;
52456;SDS011;38369;52.840;7.082;2023-04-27T12:28:36;7.45;;;5.25;;
52456;SDS011;38369;52.840;7.082;2023-04-27T12:31:03;7.90;;;5.15;;
52456;SDS011;38369;52.840;7.082;2023-04-27T12:33:29;6.10;;;3.88;;
52456;SDS011;38369;52.840;7.082;2023-04-27T12:35:55;5.90;;;3.50;;
52456;SDS011;38369;52.840;7.082;2023-04-27T12:38:21;5.80;;;4.60;;
52456;SDS011;38369;52.840;7.082;2023-04-27T12:40:48;5.57;;;3.50;;
52456;SDS011;38369;52.840;7.082;2023-04-27T12:43:14;6.72;;;4.53;;
52456;SDS011;38369;52.840;7.082;2023-04-27T12:45:40;6.10;;;4.15;;
52456;SDS011;38369;52.840;7.082;2023-04-27T12:48:06;6.30;;;4.40;;
52456;SDS011;38369;52.840;7.082;2023-04-27T12:50:33;6.75;;;4.53;;
52456;SDS011;38369;52.840;7.082;2023-04-27T12:53:01;8.35;;;4.43;;
52456;SDS011;38369;52.840;7.082;2023-04-27T12:55:28;6.88;;;4.43;;
52456;SDS011;38369;52.840;7.082;2023-04-27T12:57:54;6.45;;;4.47;;
52456;SDS011;38369;52.840;7.082;2023-04-27T13:00:22;6.35;;;4.47;;
52456;SDS011;38369;52.840;7.082;2023-04-27T13:02:49;4.50;;;3.70;;
52456;SDS011;38369;52.840;7.082;2023-04-27T13:05:15;8.48;;;4.75;;
52456;SDS011;38369;52.840;7.082;2023-04-27T13:07:41;5.45;;;4.35;;
52456;SDS011;38369;52.840;7.082;2023-04-27T13:10:07;5.38;;;4.38;;
52456;SDS011;38369;52.840;7.082;2023-04-27T13:12:35;5.28;;;3.75;;
52456;SDS011;38369;52.840;7.082;2023-04-27T13:15:01;5.45;;;4.13;;
52456;SDS011;38369;52.840;7.082;2023-04-27T13:17:27;6.63;;;4.60;;
52456;SDS011;38369;52.840;7.082;2023-04-27T13:19:53;6.57;;;4.00;;
52456;SDS011;38369;52.840;7.082;2023-04-27T13:22:19;6.07;;;3.95;;
52456;SDS011;38369;52.840;7.082;2023-04-27T13:24:46;5.72;;;3.90;;
52456;SDS011;38369;52.840;7.082;2023-04-27T13:27:12;7.00;;;4.32;;
52456;SDS011;38369;52.840;7.082;2023-04-27T13:29:38;7.82;;;4.57;;
52456;SDS011;38369;52.840;7.082;2023-04-27T13:32:04;5.82;;;3.88;;
52456;SDS011;38369;52.840;7.082;2023-04-27T13:34:30;5.63;;;3.47;;
52456;SDS011;38369;52.840;7.082;2023-04-27T13:36:56;5.00;;;3.50;;
52456;SDS011;38369;52.840;7.082;2023-04-27T13:39:22;6.47;;;3.83;;
52456;SDS011;38369;52.840;7.082;2023-04-27T13:41:49;7.40;;;4.43;;
52456;SDS011;38369;52.840;7.082;2023-04-27T13:44:15;5.13;;;4.28;;
52456;SDS011;38369;52.840;7.082;2023-04-27T13:46:41;5.65;;;4.07;;
52456;SDS011;38369;52.840;7.082;2023-04-27T13:49:07;5.45;;;3.97;;
52456;SDS011;38369;52.840;7.082;2023-04-27T13:51:35;9.07;;;4.20;;
52456;SDS011;38369;52.840;7.082;2023-04-27T13:54:01;6.18;;;3.65;;
52456;SDS011;38369;52.840;7.082;2023-04-27T13:56:27;6.15;;;4.07;;
52456;SDS011;38369;52.840;7.082;2023-04-27T13:58:53;7.65;;;4.10;;
52456;SDS011;38369;52.840;7.082;2023-04-27T14:01:19;6.03;;;3.95;;
52456;SDS011;38369;52.840;7.082;2023-04-27T14:03:45;6.35;;;4.00;;
52456;SDS011;38369;52.840;7.082;2023-04-27T14:06:11;8.35;;;4.90;;
52456;SDS011;38369;52.840;7.082;2023-04-27T14:08:37;7.47;;;4.35;;
52456;SDS011;38369;52.840;7.082;2023-04-27T14:11:03;6.82;;;4.47;;
52456;SDS011;38369;52.840;7.082;2023-04-27T14:13:30;6.28;;;4.50;;
52456;SDS011;38369;52.840;7.082;2023-04-27T14:15:56;7.18;;;4.13;;
52456;SDS011;38369;52.840;7.082;2023-04-27T14:18:22;6.93;;;4.05;;
52456;SDS011;38369;52.840;7.082;2023-04-27T14:20:48;7.47;;;4.28;;
52456;SDS011;38369;52.840;7.082;2023-04-27T14:23:16;6.40;;;3.92;;
52456;SDS011;38369;52.840;7.082;2023-04-27T14:25:42;9.40;;;4.95;;
52456;SDS011;38369;52.840;7.082;2023-04-27T14:28:08;7.70;;;4.22;;
52456;SDS011;38369;52.840;7.082;2023-04-27T14:30:36;7.68;;;4.38;;
52456;SDS011;38369;52.840;7.082;2023-04-27T14:33:02;5.68;;;3.72;;
52456;SDS011;38369;52.840;7.082;2023-04-27T14:35:28;6.72;;;4.47;;
52456;SDS011;38369;52.840;7.082;2023-04-27T14:37:54;7.35;;;4.78;;
52456;SDS011;38369;52.840;7.082;2023-04-27T14:40:25;9.32;;;4.53;;
52456;SDS011;38369;52.840;7.082;2023-04-27T14:42:52;6.60;;;4.75;;
52456;SDS011;38369;52.840;7.082;2023-04-27T14:45:18;6.60;;;4.10;;
52456;SDS011;38369;52.840;7.082;2023-04-27T14:47:44;9.82;;;4.32;;